Duluth International Airport
KDLH : now visible

Airfield :











YOU CAN JOIN US ON...

 
LOGIN :

Register | Disclaimer

   EN    FR    IT 

 









Legend :    VFR   Marginal VFR   IFR   Intensive IFR   Very Intensive IFR
Visi :
Ceiling :
>= 8 km
>= 3000ft
5 to 8 km
1000 to 3000 ft
1500m to 5 km
500 to 1000 ft
800 to 1500m
200 to 500 ft
< 800m
< 200 ft
Symbols :   Thunderstorms  Fog  Heavy snow  Heavy precipitations  Wind > 20 kt






- Airport Elevation : 1428 ft
- IATA code : DLH


KDLH - Duluth International

CURRENT METAR :
  • 231255Z 25010KT 6SM BR CLR M05/M07 A2963 RMK AO2 SLP055 T10501067

EXPIRED METARs :
  • 231155Z 24009KT 4SM BR CLR M04/M06 A2965 RMK AO2 SLP058 I1000 I6001 T10441061 11017 21056 58013
  • 231055Z 25009KT 5SM BR CLR M04/M06 A2966 RMK AO2 SLP061 T10441061

TAF KDLH
Valid from the 23 at 12:00 until the 24 at 12:00 UTC


231142Z 2312/2412 25009KT 5SM BR FEW120 WS020/27035KT
FM231400 26012G20KT P6SM FEW250
FM231900 29018G28KT P6SM SCT050
FM232300 29016KT P6SM SCT050
FM241000 31009KT P6SM SCT100



MET'MAP, your aeronautical weather chart ! - Copyright ORBIFLY December 2007 - Disclaimer

ORBIFLY MET'MAP TEAM :

Programming & Development : Alexandra Zaïnal
Concept & original design : Baudouin d'Aumeries
Assistance for programming : Marc-Olivier Méhu
Technical & hardware support : Manuel Goepfert

Contact : metmap@orbifly.com




SOURCES & CREDITS :

   NOAA       Earth
Advisory